sensor_id;sensor_type;location;lat;lon;timestamp;temperature;humidity
36856;DHT22;22788;51.434;6.786;2023-07-13T00:01:44;23.10;91.10
36856;DHT22;22788;51.434;6.786;2023-07-13T00:04:09;23.10;91.00
36856;DHT22;22788;51.434;6.786;2023-07-13T00:06:35;23.10;91.00
36856;DHT22;22788;51.434;6.786;2023-07-13T00:09:01;23.10;91.00
36856;DHT22;22788;51.434;6.786;2023-07-13T00:11:27;23.10;91.00
36856;DHT22;22788;51.434;6.786;2023-07-13T00:13:53;23.00;91.00
36856;DHT22;22788;51.434;6.786;2023-07-13T00:16:20;23.00;91.10
36856;DHT22;22788;51.434;6.786;2023-07-13T00:18:46;23.00;91.00
36856;DHT22;22788;51.434;6.786;2023-07-13T00:21:12;22.90;90.70
36856;DHT22;22788;51.434;6.786;2023-07-13T00:23:40;22.90;91.00
36856;DHT22;22788;51.434;6.786;2023-07-13T00:26:07;22.90;91.00
36856;DHT22;22788;51.434;6.786;2023-07-13T00:28:34;22.90;87.30
36856;DHT22;22788;51.434;6.786;2023-07-13T00:30:59;22.80;91.10
36856;DHT22;22788;51.434;6.786;2023-07-13T00:33:27;22.80;91.10
36856;DHT22;22788;51.434;6.786;2023-07-13T00:35:53;22.80;89.30
36856;DHT22;22788;51.434;6.786;2023-07-13T00:38:19;22.80;91.00
36856;DHT22;22788;51.434;6.786;2023-07-13T00:40:45;22.80;91.10
36856;DHT22;22788;51.434;6.786;2023-07-13T00:43:13;22.80;91.00
36856;DHT22;22788;51.434;6.786;2023-07-13T00:46:15;22.80;91.00
36856;DHT22;22788;51.434;6.786;2023-07-13T00:48:43;22.80;90.80
36856;DHT22;22788;51.434;6.786;2023-07-13T00:51:11;22.80;91.00
36856;DHT22;22788;51.434;6.786;2023-07-13T00:53:37;22.80;91.00
36856;DHT22;22788;51.434;6.786;2023-07-13T00:56:03;22.70;91.00
36856;DHT22;22788;51.434;6.786;2023-07-13T00:58:29;22.80;91.00
36856;DHT22;22788;51.434;6.786;2023-07-13T01:00:55;22.70;91.00
36856;DHT22;22788;51.434;6.786;2023-07-13T01:03:21;22.80;91.00
36856;DHT22;22788;51.434;6.786;2023-07-13T01:05:48;22.70;90.20
36856;DHT22;22788;51.434;6.786;2023-07-13T01:08:14;22.70;91.00
36856;DHT22;22788;51.434;6.786;2023-07-13T01:10:40;22.70;91.00
36856;DHT22;22788;51.434;6.786;2023-07-13T01:13:06;22.70;91.00
36856;DHT22;22788;51.434;6.786;2023-07-13T01:15:40;22.70;91.00
36856;DHT22;22788;51.434;6.786;2023-07-13T01:18:08;22.70;91.00
36856;DHT22;22788;51.434;6.786;2023-07-13T01:20:35;22.60;91.00
36856;DHT22;22788;51.434;6.786;2023-07-13T01:23:03;22.70;91.10
36856;DHT22;22788;51.434;6.786;2023-07-13T01:25:29;22.60;89.90
36856;DHT22;22788;51.434;6.786;2023-07-13T01:27:54;22.60;91.00
36856;DHT22;22788;51.434;6.786;2023-07-13T01:30:20;22.40;91.00
36856;DHT22;22788;51.434;6.786;2023-07-13T01:32:45;22.60;90.90
36856;DHT22;22788;51.434;6.786;2023-07-13T01:35:11;22.60;91.00
36856;DHT22;22788;51.434;6.786;2023-07-13T01:37:37;22.60;91.00
36856;DHT22;22788;51.434;6.786;2023-07-13T01:40:05;22.60;90.80
36856;DHT22;22788;51.434;6.786;2023-07-13T01:42:30;22.60;91.00
36856;DHT22;22788;51.434;6.786;2023-07-13T01:44:56;22.50;91.00
36856;DHT22;22788;51.434;6.786;2023-07-13T01:47:22;22.50;90.90
36856;DHT22;22788;51.434;6.786;2023-07-13T01:49:48;22.50;91.00
36856;DHT22;22788;51.434;6.786;2023-07-13T01:52:13;22.50;91.00
36856;DHT22;22788;51.434;6.786;2023-07-13T01:54:39;22.50;91.10
36856;DHT22;22788;51.434;6.786;2023-07-13T01:57:06;22.40;91.00
36856;DHT22;22788;51.434;6.786;2023-07-13T01:59:32;22.50;91.10
36856;DHT22;22788;51.434;6.786;2023-07-13T02:01:57;22.40;91.00
36856;DHT22;22788;51.434;6.786;2023-07-13T02:04:23;22.40;91.10
36856;DHT22;22788;51.434;6.786;2023-07-13T02:06:49;22.40;91.10
36856;DHT22;22788;51.434;6.786;2023-07-13T02:09:20;22.40;91.00
36856;DHT22;22788;51.434;6.786;2023-07-13T02:11:46;22.40;91.00
36856;DHT22;22788;51.434;6.786;2023-07-13T02:14:13;22.40;91.10
36856;DHT22;22788;51.434;6.786;2023-07-13T02:16:38;22.40;91.10
36856;DHT22;22788;51.434;6.786;2023-07-13T02:19:05;22.40;91.10
36856;DHT22;22788;51.434;6.786;2023-07-13T02:21:31;22.40;91.10
36856;DHT22;22788;51.434;6.786;2023-07-13T02:23:57;22.40;91.10
36856;DHT22;22788;51.434;6.786;2023-07-13T02:26:22;22.40;90.90
36856;DHT22;22788;51.434;6.786;2023-07-13T02:28:48;22.40;91.10
36856;DHT22;22788;51.434;6.786;2023-07-13T02:31:16;22.30;91.10
36856;DHT22;22788;51.434;6.786;2023-07-13T02:33:42;22.30;91.10
36856;DHT22;22788;51.434;6.786;2023-07-13T02:36:08;22.30;91.10
36856;DHT22;22788;51.434;6.786;2023-07-13T02:38:35;22.30;91.20
36856;DHT22;22788;51.434;6.786;2023-07-13T02:41:00;22.20;90.50
36856;DHT22;22788;51.434;6.786;2023-07-13T02:43:26;22.20;91.20
36856;DHT22;22788;51.434;6.786;2023-07-13T02:45:51;22.20;91.20
36856;DHT22;22788;51.434;6.786;2023-07-13T02:48:18;22.20;91.10
36856;DHT22;22788;51.434;6.786;2023-07-13T02:50:44;22.20;91.20
36856;DHT22;22788;51.434;6.786;2023-07-13T02:53:10;22.20;91.20
36856;DHT22;22788;51.434;6.786;2023-07-13T02:55:36;22.20;91.20
36856;DHT22;22788;51.434;6.786;2023-07-13T02:58:01;22.20;91.20
36856;DHT22;22788;51.434;6.786;2023-07-13T03:00:27;22.20;91.20
36856;DHT22;22788;51.434;6.786;2023-07-13T03:02:53;22.20;91.20
36856;DHT22;22788;51.434;6.786;2023-07-13T03:05:20;22.20;91.20
36856;DHT22;22788;51.434;6.786;2023-07-13T03:07:46;22.20;91.20
36856;DHT22;22788;51.434;6.786;2023-07-13T03:10:11;22.20;91.20
36856;DHT22;22788;51.434;6.786;2023-07-13T03:12:37;22.20;91.20
36856;DHT22;22788;51.434;6.786;2023-07-13T03:15:03;22.20;91.20
36856;DHT22;22788;51.434;6.786;2023-07-13T03:17:28;22.10;91.20
36856;DHT22;22788;51.434;6.786;2023-07-13T03:19:54;22.10;91.30
36856;DHT22;22788;51.434;6.786;2023-07-13T03:22:21;22.10;91.30
36856;DHT22;22788;51.434;6.786;2023-07-13T03:24:47;22.10;91.30
36856;DHT22;22788;51.434;6.786;2023-07-13T03:27:13;22.10;91.30
36856;DHT22;22788;51.434;6.786;2023-07-13T03:29:38;22.00;91.30
36856;DHT22;22788;51.434;6.786;2023-07-13T03:32:05;22.00;91.30
36856;DHT22;22788;51.434;6.786;2023-07-13T03:34:30;22.00;91.30
36856;DHT22;22788;51.434;6.786;2023-07-13T03:36:56;22.00;91.40
36856;DHT22;22788;51.434;6.786;2023-07-13T03:39:23;22.00;91.60
36856;DHT22;22788;51.434;6.786;2023-07-13T03:41:49;21.90;91.40
36856;DHT22;22788;51.434;6.786;2023-07-13T03:44:16;22.00;91.40
36856;DHT22;22788;51.434;6.786;2023-07-13T03:46:41;22.00;91.40
36856;DHT22;22788;51.434;6.786;2023-07-13T03:49:07;22.00;91.50
36856;DHT22;22788;51.434;6.786;2023-07-13T03:51:33;22.00;91.40
36856;DHT22;22788;51.434;6.786;2023-07-13T03:53:59;22.00;91.40
36856;DHT22;22788;51.434;6.786;2023-07-13T03:56:26;22.00;91.50
36856;DHT22;22788;51.434;6.786;2023-07-13T03:58:51;22.00;91.50
36856;DHT22;22788;51.434;6.786;2023-07-13T04:01:19;21.90;91.70
36856;DHT22;22788;51.434;6.786;2023-07-13T04:03:45;21.90;91.50
36856;DHT22;22788;51.434;6.786;2023-07-13T04:06:14;21.90;91.50
36856;DHT22;22788;51.434;6.786;2023-07-13T04:08:40;21.90;91.50
36856;DHT22;22788;51.434;6.786;2023-07-13T04:11:06;21.90;91.60
36856;DHT22;22788;51.434;6.786;2023-07-13T04:13:33;21.80;91.60
36856;DHT22;22788;51.434;6.786;2023-07-13T04:15:59;21.90;91.60
36856;DHT22;22788;51.434;6.786;2023-07-13T04:18:25;21.80;91.60
36856;DHT22;22788;51.434;6.786;2023-07-13T04:20:51;21.80;91.60
36856;DHT22;22788;51.434;6.786;2023-07-13T04:23:16;21.80;91.60
36856;DHT22;22788;51.434;6.786;2023-07-13T04:25:43;21.80;91.70
36856;DHT22;22788;51.434;6.786;2023-07-13T04:28:09;21.80;91.60
36856;DHT22;22788;51.434;6.786;2023-07-13T04:30:36;21.80;91.70
36856;DHT22;22788;51.434;6.786;2023-07-13T04:33:01;21.80;91.70
36856;DHT22;22788;51.434;6.786;2023-07-13T04:35:27;21.80;91.70
36856;DHT22;22788;51.434;6.786;2023-07-13T04:37:52;21.80;91.70
36856;DHT22;22788;51.434;6.786;2023-07-13T04:40:18;21.70;91.70
36856;DHT22;22788;51.434;6.786;2023-07-13T04:42:44;21.70;91.80
36856;DHT22;22788;51.434;6.786;2023-07-13T04:45:10;21.70;91.80
36856;DHT22;22788;51.434;6.786;2023-07-13T04:47:37;21.70;91.90
36856;DHT22;22788;51.434;6.786;2023-07-13T04:50:03;21.70;91.80
36856;DHT22;22788;51.434;6.786;2023-07-13T04:52:28;21.70;91.80
36856;DHT22;22788;51.434;6.786;2023-07-13T04:54:54;21.70;91.80
36856;DHT22;22788;51.434;6.786;2023-07-13T04:57:20;21.70;91.80
36856;DHT22;22788;51.434;6.786;2023-07-13T04:59:45;21.70;91.80
36856;DHT22;22788;51.434;6.786;2023-07-13T05:02:11;21.60;91.90
36856;DHT22;22788;51.434;6.786;2023-07-13T05:04:38;21.70;92.00
36856;DHT22;22788;51.434;6.786;2023-07-13T05:07:05;21.70;91.90
36856;DHT22;22788;51.434;6.786;2023-07-13T05:09:31;21.60;92.00
36856;DHT22;22788;51.434;6.786;2023-07-13T05:11:56;21.60;92.00
36856;DHT22;22788;51.434;6.786;2023-07-13T05:14:22;21.60;92.00
36856;DHT22;22788;51.434;6.786;2023-07-13T05:16:48;21.60;92.00
36856;DHT22;22788;51.434;6.786;2023-07-13T05:19:13;21.60;92.10
36856;DHT22;22788;51.434;6.786;2023-07-13T05:21:40;21.60;92.10
36856;DHT22;22788;51.434;6.786;2023-07-13T05:24:06;21.50;92.20
36856;DHT22;22788;51.434;6.786;2023-07-13T05:26:31;21.60;92.20
36856;DHT22;22788;51.434;6.786;2023-07-13T05:28:57;21.50;92.20
36856;DHT22;22788;51.434;6.786;2023-07-13T05:31:22;21.50;92.20
36856;DHT22;22788;51.434;6.786;2023-07-13T05:33:48;21.50;92.10
36856;DHT22;22788;51.434;6.786;2023-07-13T05:36:14;21.60;92.10
36856;DHT22;22788;51.434;6.786;2023-07-13T05:38:41;21.60;92.30
36856;DHT22;22788;51.434;6.786;2023-07-13T05:41:06;21.50;92.30
36856;DHT22;22788;51.434;6.786;2023-07-13T05:43:32;21.50;92.40
36856;DHT22;22788;51.434;6.786;2023-07-13T14:37:04;22.60;93.40
36856;DHT22;22788;51.434;6.786;2023-07-13T14:39:30;22.60;93.80
36856;DHT22;22788;51.434;6.786;2023-07-13T14:41:57;22.60;93.00
36856;DHT22;22788;51.434;6.786;2023-07-13T14:44:26;22.60;93.00
36856;DHT22;22788;51.434;6.786;2023-07-13T14:46:53;22.60;92.80
36856;DHT22;22788;51.434;6.786;2023-07-13T14:49:24;22.60;93.50
36856;DHT22;22788;51.434;6.786;2023-07-13T14:51:51;22.60;92.60
36856;DHT22;22788;51.434;6.786;2023-07-13T14:54:19;22.70;92.60
36856;DHT22;22788;51.434;6.786;2023-07-13T14:56:44;22.70;92.70
36856;DHT22;22788;51.434;6.786;2023-07-13T14:59:10;22.80;92.60
36856;DHT22;22788;51.434;6.786;2023-07-13T15:01:36;22.70;92.70
36856;DHT22;22788;51.434;6.786;2023-07-13T15:04:03;22.80;92.70
36856;DHT22;22788;51.434;6.786;2023-07-13T15:06:29;22.80;92.80
36856;DHT22;22788;51.434;6.786;2023-07-13T15:08:54;22.80;93.00
36856;DHT22;22788;51.434;6.786;2023-07-13T15:11:22;22.80;93.40
36856;DHT22;22788;51.434;6.786;2023-07-13T15:13:47;22.80;94.70
36856;DHT22;22788;51.434;6.786;2023-07-13T15:16:16;22.70;93.10
36856;DHT22;22788;51.434;6.786;2023-07-13T15:18:42;22.60;93.00
36856;DHT22;22788;51.434;6.786;2023-07-13T15:21:10;22.60;93.30
36856;DHT22;22788;51.434;6.786;2023-07-13T15:23:36;22.50;93.40
36856;DHT22;22788;51.434;6.786;2023-07-13T15:26:02;22.50;93.50
36856;DHT22;22788;51.434;6.786;2023-07-13T15:28:29;22.30;93.50
36856;DHT22;22788;51.434;6.786;2023-07-13T15:30:54;22.30;93.40
36856;DHT22;22788;51.434;6.786;2023-07-13T15:33:23;22.30;93.90
36856;DHT22;22788;51.434;6.786;2023-07-13T15:35:49;22.30;94.00
36856;DHT22;22788;51.434;6.786;2023-07-13T15:38:17;22.30;93.60
36856;DHT22;22788;51.434;6.786;2023-07-13T15:40:43;22.30;93.90
36856;DHT22;22788;51.434;6.786;2023-07-13T15:43:11;22.40;92.20
36856;DHT22;22788;51.434;6.786;2023-07-13T15:45:39;22.30;93.10
36856;DHT22;22788;51.434;6.786;2023-07-13T15:48:15;22.30;92.80
36856;DHT22;22788;51.434;6.786;2023-07-13T15:50:43;22.30;93.90
36856;DHT22;22788;51.434;6.786;2023-07-13T15:53:10;22.40;92.00
36856;DHT22;22788;51.434;6.786;2023-07-13T15:55:38;22.40;93.40
36856;DHT22;22788;51.434;6.786;2023-07-13T15:58:03;22.40;92.50
36856;DHT22;22788;51.434;6.786;2023-07-13T16:00:29;22.40;93.20
36856;DHT22;22788;51.434;6.786;2023-07-13T16:02:56;22.40;92.90
36856;DHT22;22788;51.434;6.786;2023-07-13T16:05:23;22.40;93.60
36856;DHT22;22788;51.434;6.786;2023-07-13T16:07:51;22.50;93.30
36856;DHT22;22788;51.434;6.786;2023-07-13T16:10:31;22.50;92.60
36856;DHT22;22788;51.434;6.786;2023-07-13T16:12:57;22.50;93.50
36856;DHT22;22788;51.434;6.786;2023-07-13T16:15:23;22.60;92.20
36856;DHT22;22788;51.434;6.786;2023-07-13T16:17:49;22.50;92.90
36856;DHT22;22788;51.434;6.786;2023-07-13T16:20:27;22.60;93.30
36856;DHT22;22788;51.434;6.786;2023-07-13T16:22:55;22.50;93.00
36856;DHT22;22788;51.434;6.786;2023-07-13T16:25:23;22.60;93.50
36856;DHT22;22788;51.434;6.786;2023-07-13T16:27:52;22.50;93.20
36856;DHT22;22788;51.434;6.786;2023-07-13T16:30:23;22.50;92.40
36856;DHT22;22788;51.434;6.786;2023-07-13T16:32:51;22.50;93.10
36856;DHT22;22788;51.434;6.786;2023-07-13T16:35:23;22.50;93.40
36856;DHT22;22788;51.434;6.786;2023-07-13T16:37:51;22.50;93.30
36856;DHT22;22788;51.434;6.786;2023-07-13T16:40:22;22.50;92.70
36856;DHT22;22788;51.434;6.786;2023-07-13T16:42:49;22.40;91.90
36856;DHT22;22788;51.434;6.786;2023-07-13T16:45:15;22.50;92.40
36856;DHT22;22788;51.434;6.786;2023-07-13T16:47:41;22.50;92.00
36856;DHT22;22788;51.434;6.786;2023-07-13T16:50:14;22.50;93.50
36856;DHT22;22788;51.434;6.786;2023-07-13T16:52:42;22.40;91.90
36856;DHT22;22788;51.434;6.786;2023-07-13T16:55:09;22.40;91.60
36856;DHT22;22788;51.434;6.786;2023-07-13T16:57:35;22.50;93.10
36856;DHT22;22788;51.434;6.786;2023-07-13T17:00:01;22.50;91.40
36856;DHT22;22788;51.434;6.786;2023-07-13T17:02:34;22.50;93.30
36856;DHT22;22788;51.434;6.786;2023-07-13T17:05:00;22.50;92.60
36856;DHT22;22788;51.434;6.786;2023-07-13T17:07:26;22.50;92.80
36856;DHT22;22788;51.434;6.786;2023-07-13T17:09:53;22.50;92.30
36856;DHT22;22788;51.434;6.786;2023-07-13T17:12:18;22.50;91.80
36856;DHT22;22788;51.434;6.786;2023-07-13T17:14:44;22.50;92.70
36856;DHT22;22788;51.434;6.786;2023-07-13T17:17:13;22.50;93.30
36856;DHT22;22788;51.434;6.786;2023-07-13T17:19:40;22.50;92.30
36856;DHT22;22788;51.434;6.786;2023-07-13T17:22:05;22.40;91.30
36856;DHT22;22788;51.434;6.786;2023-07-13T17:24:33;22.40;92.90
36856;DHT22;22788;51.434;6.786;2023-07-13T17:27:01;22.50;91.80
36856;DHT22;22788;51.434;6.786;2023-07-13T17:29:26;22.50;93.20
36856;DHT22;22788;51.434;6.786;2023-07-13T17:31:52;22.50;93.10
36856;DHT22;22788;51.434;6.786;2023-07-13T17:34:17;22.50;93.10
36856;DHT22;22788;51.434;6.786;2023-07-13T17:36:43;22.50;92.40
36856;DHT22;22788;51.434;6.786;2023-07-13T17:39:13;22.50;93.10
36856;DHT22;22788;51.434;6.786;2023-07-13T17:41:39;22.50;93.10
36856;DHT22;22788;51.434;6.786;2023-07-13T17:44:06;22.60;92.00
36856;DHT22;22788;51.434;6.786;2023-07-13T17:46:33;22.50;92.40
36856;DHT22;22788;51.434;6.786;2023-07-13T17:48:59;22.40;90.50
36856;DHT22;22788;51.434;6.786;2023-07-13T17:51:25;22.40;91.50
36856;DHT22;22788;51.434;6.786;2023-07-13T17:53:50;22.40;89.80
36856;DHT22;22788;51.434;6.786;2023-07-13T17:56:16;22.30;90.60
36856;DHT22;22788;51.434;6.786;2023-07-13T17:58:43;22.40;92.60
36856;DHT22;22788;51.434;6.786;2023-07-13T18:01:11;22.40;91.40
36856;DHT22;22788;51.434;6.786;2023-07-13T18:03:40;22.40;92.80
36856;DHT22;22788;51.434;6.786;2023-07-13T18:06:11;22.40;93.00
36856;DHT22;22788;51.434;6.786;2023-07-13T18:08:37;22.40;90.80
36856;DHT22;22788;51.434;6.786;2023-07-13T18:11:03;22.40;92.70
36856;DHT22;22788;51.434;6.786;2023-07-13T18:13:28;22.40;92.70
36856;DHT22;22788;51.434;6.786;2023-07-13T18:15:54;22.40;91.50
36856;DHT22;22788;51.434;6.786;2023-07-13T18:18:22;22.40;91.20
36856;DHT22;22788;51.434;6.786;2023-07-13T18:20:48;22.30;91.50
36856;DHT22;22788;51.434;6.786;2023-07-13T18:23:16;22.30;91.60
36856;DHT22;22788;51.434;6.786;2023-07-13T18:25:42;22.30;92.20
36856;DHT22;22788;51.434;6.786;2023-07-13T18:28:07;22.20;92.10
36856;DHT22;22788;51.434;6.786;2023-07-13T18:30:33;22.30;93.00
36856;DHT22;22788;51.434;6.786;2023-07-13T18:32:59;22.30;92.80
36856;DHT22;22788;51.434;6.786;2023-07-13T18:35:29;22.40;92.20
36856;DHT22;22788;51.434;6.786;2023-07-13T18:37:55;22.40;92.60
36856;DHT22;22788;51.434;6.786;2023-07-13T18:40:21;22.40;92.40
36856;DHT22;22788;51.434;6.786;2023-07-13T18:42:47;22.40;92.60
36856;DHT22;22788;51.434;6.786;2023-07-13T18:45:13;22.40;92.40
36856;DHT22;22788;51.434;6.786;2023-07-13T18:47:40;22.30;91.70
36856;DHT22;22788;51.434;6.786;2023-07-13T18:50:13;22.30;92.40
36856;DHT22;22788;51.434;6.786;2023-07-13T18:52:40;22.40;92.40
36856;DHT22;22788;51.434;6.786;2023-07-13T18:55:12;22.30;92.80
36856;DHT22;22788;51.434;6.786;2023-07-13T18:57:38;22.30;91.50
36856;DHT22;22788;51.434;6.786;2023-07-13T19:00:05;22.30;92.80
36856;DHT22;22788;51.434;6.786;2023-07-13T19:02:31;22.30;92.80
36856;DHT22;22788;51.434;6.786;2023-07-13T19:04:57;22.30;92.80
36856;DHT22;22788;51.434;6.786;2023-07-13T19:07:22;22.30;92.50
36856;DHT22;22788;51.434;6.786;2023-07-13T19:09:51;22.30;91.00
36856;DHT22;22788;51.434;6.786;2023-07-13T19:12:17;22.20;92.50
36856;DHT22;22788;51.434;6.786;2023-07-13T19:14:43;22.20;91.40
36856;DHT22;22788;51.434;6.786;2023-07-13T19:17:09;22.20;92.30
36856;DHT22;22788;51.434;6.786;2023-07-13T19:19:35;22.20;92.60
36856;DHT22;22788;51.434;6.786;2023-07-13T19:22:01;22.20;92.80
36856;DHT22;22788;51.434;6.786;2023-07-13T19:24:27;22.20;92.50
36856;DHT22;22788;51.434;6.786;2023-07-13T19:26:54;22.00;92.90
36856;DHT22;22788;51.434;6.786;2023-07-13T19:29:21;22.10;92.40
36856;DHT22;22788;51.434;6.786;2023-07-13T19:31:47;22.10;92.90
36856;DHT22;22788;51.434;6.786;2023-07-13T19:34:17;22.10;92.00
36856;DHT22;22788;51.434;6.786;2023-07-13T19:36:43;22.20;93.00
36856;DHT22;22788;51.434;6.786;2023-07-13T19:39:18;22.20;92.90
36856;DHT22;22788;51.434;6.786;2023-07-13T19:41:44;22.20;92.80
36856;DHT22;22788;51.434;6.786;2023-07-13T19:44:12;22.20;92.90
36856;DHT22;22788;51.434;6.786;2023-07-13T19:46:38;22.20;92.80
36856;DHT22;22788;51.434;6.786;2023-07-13T19:49:05;22.20;92.50
36856;DHT22;22788;51.434;6.786;2023-07-13T19:51:31;22.20;92.90
36856;DHT22;22788;51.434;6.786;2023-07-13T19:53:59;22.20;92.80
36856;DHT22;22788;51.434;6.786;2023-07-13T19:56:25;22.20;92.90
36856;DHT22;22788;51.434;6.786;2023-07-13T19:58:51;22.20;92.90
36856;DHT22;22788;51.434;6.786;2023-07-13T20:01:18;22.20;93.00
36856;DHT22;22788;51.434;6.786;2023-07-13T20:03:44;22.20;92.40
36856;DHT22;22788;51.434;6.786;2023-07-13T20:06:22;22.10;92.90
36856;DHT22;22788;51.434;6.786;2023-07-13T20:08:49;22.20;93.00
36856;DHT22;22788;51.434;6.786;2023-07-13T20:11:15;22.10;92.90
36856;DHT22;22788;51.434;6.786;2023-07-13T20:13:41;22.20;93.00
36856;DHT22;22788;51.434;6.786;2023-07-13T20:16:09;22.20;93.00
36856;DHT22;22788;51.434;6.786;2023-07-13T20:18:40;22.20;93.00
36856;DHT22;22788;51.434;6.786;2023-07-13T20:21:08;22.20;92.90
36856;DHT22;22788;51.434;6.786;2023-07-13T20:23:34;22.10;93.00
36856;DHT22;22788;51.434;6.786;2023-07-13T20:26:00;22.10;93.00
36856;DHT22;22788;51.434;6.786;2023-07-13T20:28:26;22.10;93.00
36856;DHT22;22788;51.434;6.786;2023-07-13T20:33:56;22.10;93.00
36856;DHT22;22788;51.434;6.786;2023-07-13T20:36:22;22.10;93.00
36856;DHT22;22788;51.434;6.786;2023-07-13T20:38:47;22.10;93.00
36856;DHT22;22788;51.434;6.786;2023-07-13T20:41:13;22.10;93.10
36856;DHT22;22788;51.434;6.786;2023-07-13T20:43:39;22.10;93.10
36856;DHT22;22788;51.434;6.786;2023-07-13T20:46:10;22.00;93.10
36856;DHT22;22788;51.434;6.786;2023-07-13T20:48:39;22.10;93.10
36856;DHT22;22788;51.434;6.786;2023-07-13T20:51:08;22.10;93.10
36856;DHT22;22788;51.434;6.786;2023-07-13T20:53:35;22.10;93.20
36856;DHT22;22788;51.434;6.786;2023-07-13T20:56:01;22.10;93.20
36856;DHT22;22788;51.434;6.786;2023-07-13T20:58:26;22.00;93.20
36856;DHT22;22788;51.434;6.786;2023-07-13T21:00:52;22.00;93.20
36856;DHT22;22788;51.434;6.786;2023-07-13T21:03:20;22.00;93.20
36856;DHT22;22788;51.434;6.786;2023-07-13T21:05:46;22.00;93.20
36856;DHT22;22788;51.434;6.786;2023-07-13T21:08:15;22.00;93.10
36856;DHT22;22788;51.434;6.786;2023-07-13T21:10:41;22.00;93.20
36856;DHT22;22788;51.434;6.786;2023-07-13T21:13:07;22.00;93.20
36856;DHT22;22788;51.434;6.786;2023-07-13T21:15:33;22.00;93.30
36856;DHT22;22788;51.434;6.786;2023-07-13T21:17:59;21.90;93.30
36856;DHT22;22788;51.434;6.786;2023-07-13T21:20:27;22.00;93.60
36856;DHT22;22788;51.434;6.786;2023-07-13T21:22:53;21.90;93.40
36856;DHT22;22788;51.434;6.786;2023-07-13T21:25:22;21.90;93.40
36856;DHT22;22788;51.434;6.786;2023-07-13T21:27:49;21.90;93.40
36856;DHT22;22788;51.434;6.786;2023-07-13T21:30:16;21.90;93.60
36856;DHT22;22788;51.434;6.786;2023-07-13T21:32:43;21.90;93.40
36856;DHT22;22788;51.434;6.786;2023-07-13T21:35:29;21.90;93.40
36856;DHT22;22788;51.434;6.786;2023-07-13T21:37:56;21.90;93.40
36856;DHT22;22788;51.434;6.786;2023-07-13T21:40:25;21.90;93.50
36856;DHT22;22788;51.434;6.786;2023-07-13T21:42:51;21.80;93.50
36856;DHT22;22788;51.434;6.786;2023-07-13T21:45:24;21.80;93.60
36856;DHT22;22788;51.434;6.786;2023-07-13T21:47:50;21.80;93.60
36856;DHT22;22788;51.434;6.786;2023-07-13T21:50:17;21.80;93.70
36856;DHT22;22788;51.434;6.786;2023-07-13T21:52:43;21.70;93.70
36856;DHT22;22788;51.434;6.786;2023-07-13T21:55:17;21.70;93.70
36856;DHT22;22788;51.434;6.786;2023-07-13T21:57:48;21.70;93.90
36856;DHT22;22788;51.434;6.786;2023-07-13T22:00:17;21.80;93.80
36856;DHT22;22788;51.434;6.786;2023-07-13T22:02:43;21.70;93.80
36856;DHT22;22788;51.434;6.786;2023-07-13T22:05:12;21.70;93.80
36856;DHT22;22788;51.434;6.786;2023-07-13T22:07:37;21.70;93.80
36856;DHT22;22788;51.434;6.786;2023-07-13T22:10:07;21.70;93.80
36856;DHT22;22788;51.434;6.786;2023-07-13T22:12:37;21.70;93.80
36856;DHT22;22788;51.434;6.786;2023-07-13T22:15:05;21.70;93.80
36856;DHT22;22788;51.434;6.786;2023-07-13T22:17:31;21.60;93.80
36856;DHT22;22788;51.434;6.786;2023-07-13T22:19:57;21.60;93.90
36856;DHT22;22788;51.434;6.786;2023-07-13T22:22:22;21.60;93.90
36856;DHT22;22788;51.434;6.786;2023-07-13T22:24:48;21.60;93.90
36856;DHT22;22788;51.434;6.786;2023-07-13T22:27:13;21.60;93.90
36856;DHT22;22788;51.434;6.786;2023-07-13T22:29:39;21.50;93.90
36856;DHT22;22788;51.434;6.786;2023-07-13T22:32:07;21.50;93.90
36856;DHT22;22788;51.434;6.786;2023-07-13T22:34:34;21.50;94.00
36856;DHT22;22788;51.434;6.786;2023-07-13T22:36:59;21.50;94.00
36856;DHT22;22788;51.434;6.786;2023-07-13T22:39:27;21.50;94.00
36856;DHT22;22788;51.434;6.786;2023-07-13T22:41:55;21.50;94.00
36856;DHT22;22788;51.434;6.786;2023-07-13T22:44:24;21.50;94.00
36856;DHT22;22788;51.434;6.786;2023-07-13T22:46:51;21.50;93.90
36856;DHT22;22788;51.434;6.786;2023-07-13T22:49:20;21.50;93.90
36856;DHT22;22788;51.434;6.786;2023-07-13T22:51:45;21.50;93.90
36856;DHT22;22788;51.434;6.786;2023-07-13T22:54:12;21.50;93.90
36856;DHT22;22788;51.434;6.786;2023-07-13T22:56:38;21.50;94.00
36856;DHT22;22788;51.434;6.786;2023-07-13T22:59:03;21.50;94.10
36856;DHT22;22788;51.434;6.786;2023-07-13T23:01:29;21.50;94.10
36856;DHT22;22788;51.434;6.786;2023-07-13T23:03:57;21.50;94.00
36856;DHT22;22788;51.434;6.786;2023-07-13T23:06:27;21.40;94.00
36856;DHT22;22788;51.434;6.786;2023-07-13T23:08:53;21.50;94.00
36856;DHT22;22788;51.434;6.786;2023-07-13T23:11:21;21.50;93.90
36856;DHT22;22788;51.434;6.786;2023-07-13T23:13:47;21.40;94.00
36856;DHT22;22788;51.434;6.786;2023-07-13T23:16:15;21.40;94.00
36856;DHT22;22788;51.434;6.786;2023-07-13T23:18:41;21.40;94.00
36856;DHT22;22788;51.434;6.786;2023-07-13T23:21:09;21.40;94.10
36856;DHT22;22788;51.434;6.786;2023-07-13T23:23:37;21.40;94.10
36856;DHT22;22788;51.434;6.786;2023-07-13T23:26:08;21.40;94.10
36856;DHT22;22788;51.434;6.786;2023-07-13T23:28:34;21.40;94.00
36856;DHT22;22788;51.434;6.786;2023-07-13T23:30:59;21.40;94.10
36856;DHT22;22788;51.434;6.786;2023-07-13T23:33:26;21.40;94.20
36856;DHT22;22788;51.434;6.786;2023-07-13T23:35:56;21.30;94.20
36856;DHT22;22788;51.434;6.786;2023-07-13T23:38:22;21.30;94.10
36856;DHT22;22788;51.434;6.786;2023-07-13T23:40:49;21.30;94.20
36856;DHT22;22788;51.434;6.786;2023-07-13T23:43:15;21.30;94.20
36856;DHT22;22788;51.434;6.786;2023-07-13T23:45:43;21.30;94.20
36856;DHT22;22788;51.434;6.786;2023-07-13T23:48:11;21.30;94.10
36856;DHT22;22788;51.434;6.786;2023-07-13T23:50:37;21.30;94.20
36856;DHT22;22788;51.434;6.786;2023-07-13T23:53:03;21.30;94.20
36856;DHT22;22788;51.434;6.786;2023-07-13T23:55:31;21.20;94.20
36856;DHT22;22788;51.434;6.786;2023-07-13T23:58:01;21.20;94.00
